Terminal Aerodrome Forecast
Issued by NWS New Orleans/Baton Rouge, LA

Home | Current Version | Previous Version | Text Only | Print | Product List | Glossary On
Versions: 1 2 3 4 5 6 7 8 9 10 11 12 13 14 15 16 17 18 19
644
FTUS44 KLIX 072034 AAA
TAFBTR
TAF AMD
KBTR 072034Z 0721/0818 VRB03KT P6SM BKN025
     FM080800 04005KT P6SM OVC008
     FM081100 03007KT P6SM OVC003
     FM081300 03009KT P6SM OVC008
     FM081500 02010KT P6SM OVC010=

USA.gov is the U.S. government's official web portal to all federal, state and local government web resources and services.